Time;durP1;ratioP1;P1;durP2;ratioP2;P2;SDS_P1;SDS_P2;PMS_P1;PMS_P2;Temp;Humidity;BMP_temperature;BMP_pressure;BME280_temperature;BME280_humidity;BME280_pressure;Samples;Min_cycle;Max_cycle;Signal;HPM_P1;HPM_P2
2024/02/10 00:01:03;;;;;;;3.83;1.88;;;;;;;;;;4962985;29;20083;-79
2024/02/10 00:03:29;;;;;;;5.38;2.03;;;;;;;;;;4947018;29;20486;-79
2024/02/10 00:06:00;;;;;;;7.97;1.70;;;;;;;;;;4926036;29;20043;-79
2024/02/10 00:08:27;;;;;;;3.22;1.60;;;;;;;;;;4940407;29;20542;-79
2024/02/10 00:10:54;;;;;;;3.70;1.70;;;;;;;;;;4942293;29;20039;-79
2024/02/10 00:13:20;;;;;;;4.93;1.92;;;;;;;;;;4941861;29;20107;-79
2024/02/10 00:15:46;;;;;;;4.10;1.50;;;;;;;;;;4958181;29;20031;-79
2024/02/10 00:18:12;;;;;;;7.43;1.30;;;;;;;;;;4942835;29;20035;-79
2024/02/10 00:20:38;;;;;;;2.22;1.10;;;;;;;;;;4942508;29;20041;-79
2024/02/10 00:23:04;;;;;;;3.90;1.35;;;;;;;;;;4944198;29;20593;-79
2024/02/10 00:25:32;;;;;;;5.28;1.50;;;;;;;;;;4941680;29;20042;-79
2024/02/10 00:28:00;;;;;;;;;;;;;;;;;;4907112;29;20452;-80
2024/02/10 00:30:29;;;;;;;4.00;1.42;;;;;;;;;;4939829;29;19965;-79
2024/02/10 00:32:56;;;;;;;;;;;;;;;;;;4936948;29;20495;-79
2024/02/10 00:35:22;;;;;;;4.47;1.20;;;;;;;;;;4960980;28;19917;-78
2024/02/10 00:37:48;;;;;;;3.08;1.30;;;;;;;;;;4948149;29;20506;-80
2024/02/10 00:40:14;;;;;;;3.00;1.38;;;;;;;;;;4969315;29;20035;-79
2024/02/10 00:42:39;;;;;;;3.90;1.35;;;;;;;;;;4969724;28;20034;-80
2024/02/10 00:45:07;;;;;;;5.38;1.40;;;;;;;;;;4946484;29;20172;-79
2024/02/10 00:47:34;;;;;;;3.75;1.50;;;;;;;;;;4945659;29;20031;-79
2024/02/10 00:50:01;;;;;;;5.47;1.50;;;;;;;;;;4947036;29;20042;-79
2024/02/10 00:52:27;;;;;;;3.72;1.70;;;;;;;;;;4941589;29;20486;-79
2024/02/10 00:54:53;;;;;;;2.90;1.30;;;;;;;;;;4958654;28;20443;-80
2024/02/10 00:57:20;;;;;;;3.47;1.30;;;;;;;;;;4957452;28;20142;-79
2024/02/10 00:59:46;;;;;;;4.82;1.52;;;;;;;;;;4957838;28;20057;-81
2024/02/10 01:02:17;;;;;;;4.75;1.65;;;;;;;;;;4940602;29;20457;-79
2024/02/10 01:04:43;;;;;;;5.18;1.77;;;;;;;;;;4940273;29;20541;-79
2024/02/10 01:07:09;;;;;;;4.68;2.03;;;;;;;;;;4942351;29;20062;-80
2024/02/10 01:09:38;;;;;;;5.18;1.70;;;;;;;;;;4958437;28;20055;-79
2024/02/10 01:12:04;;;;;;;3.33;1.50;;;;;;;;;;4925928;29;20042;-78
2024/02/10 01:14:30;;;;;;;4.47;1.45;;;;;;;;;;4939451;29;20482;-79
2024/02/10 01:16:57;;;;;;;5.38;2.13;;;;;;;;;;4940456;29;20035;-78
2024/02/10 01:19:25;;;;;;;3.05;1.40;;;;;;;;;;4945594;29;20078;-80
2024/02/10 01:21:57;;;;;;;3.53;1.83;;;;;;;;;;4963143;29;20030;-78
2024/02/10 01:24:27;;;;;;;3.42;1.60;;;;;;;;;;4957493;28;20050;-78
2024/02/10 01:26:53;;;;;;;4.78;1.77;;;;;;;;;;4941747;29;20495;-78
2024/02/10 01:29:20;;;;;;;7.13;1.60;;;;;;;;;;4956488;28;20098;-79
2024/02/10 01:31:46;;;;;;;3.97;2.03;;;;;;;;;;4955148;28;20047;-80
2024/02/10 01:34:12;;;;;;;5.45;1.55;;;;;;;;;;4939711;29;20040;-79
2024/02/10 01:36:38;;;;;;;4.70;1.55;;;;;;;;;;4941223;29;20058;-79
2024/02/10 01:39:04;;;;;;;3.30;1.60;;;;;;;;;;4939813;29;20032;-78
2024/02/10 01:41:30;;;;;;;4.25;1.65;;;;;;;;;;4941118;29;20035;-78
2024/02/10 01:43:55;;;;;;;3.97;1.58;;;;;;;;;;4940058;29;20161;-78
2024/02/10 01:46:22;;;;;;;6.10;1.75;;;;;;;;;;4924210;29;20043;-78
2024/02/10 01:48:49;;;;;;;6.43;2.03;;;;;;;;;;4941424;29;20099;-78
2024/02/10 01:51:16;;;;;;;2.42;1.40;;;;;;;;;;4924796;29;20057;-78
2024/02/10 01:53:42;;;;;;;4.75;1.80;;;;;;;;;;4927062;29;20035;-78
2024/02/10 01:56:10;;;;;;;4.32;1.60;;;;;;;;;;4940363;29;20428;-78
2024/02/10 01:58:37;;;;;;;2.90;1.38;;;;;;;;;;4938474;29;20023;-79
2024/02/10 02:01:04;;;;;;;5.28;1.63;;;;;;;;;;4921219;29;20039;-79
2024/02/10 02:03:31;;;;;;;3.70;1.60;;;;;;;;;;4935753;29;20050;-80
2024/02/10 02:05:56;;;;;;;4.63;1.92;;;;;;;;;;4937123;29;20370;-78
2024/02/10 02:08:22;;;;;;;3.95;1.65;;;;;;;;;;4935858;29;20047;-78
2024/02/10 02:10:48;;;;;;;6.50;2.10;;;;;;;;;;4904486;29;20042;-78
2024/02/10 02:13:22;;;;;;;5.93;1.63;;;;;;;;;;4935595;29;20042;-78
2024/02/10 02:15:58;;;;;;;6.13;1.88;;;;;;;;;;4920232;29;20035;-78
2024/02/10 02:18:24;;;;;;;3.50;1.90;;;;;;;;;;4936848;29;20024;-79
2024/02/10 02:20:50;;;;;;;4.93;2.00;;;;;;;;;;4903631;29;20447;-78
2024/02/10 02:23:18;;;;;;;4.35;2.08;;;;;;;;;;4919414;29;20028;-78
2024/02/10 02:25:50;;;;;;;6.22;2.03;;;;;;;;;;4935553;29;20068;-79
2024/02/10 02:28:16;;;;;;;4.93;2.13;;;;;;;;;;4936685;29;20043;-79
2024/02/10 02:30:42;;;;;;;5.28;1.98;;;;;;;;;;4936725;29;20118;-79
2024/02/10 02:33:10;;;;;;;6.22;2.00;;;;;;;;;;4948586;29;20513;-78
2024/02/10 02:35:38;;;;;;;7.22;2.17;;;;;;;;;;4939630;29;20137;-79
2024/02/10 02:38:07;;;;;;;4.57;1.98;;;;;;;;;;4938469;29;20031;-78
2024/02/10 02:40:33;;;;;;;;;;;;;;;;;;4954260;29;20070;-79
2024/02/10 02:43:03;;;;;;;5.43;1.75;;;;;;;;;;4970251;28;19911;-77
2024/02/10 02:45:29;;;;;;;10.07;2.38;;;;;;;;;;4956260;28;20067;-79
2024/02/10 02:48:01;;;;;;;5.47;2.15;;;;;;;;;;4954054;28;20035;-78
2024/02/10 02:50:31;;;;;;;5.28;2.42;;;;;;;;;;4954120;28;20031;-78
2024/02/10 02:52:59;;;;;;;4.50;2.08;;;;;;;;;;4957059;28;20031;-79
2024/02/10 02:55:25;;;;;;;8.63;2.97;;;;;;;;;;4941460;29;20059;-79
2024/02/10 02:57:51;;;;;;;9.48;3.22;;;;;;;;;;4957245;28;20462;-78
2024/02/10 03:00:17;;;;;;;4.70;2.30;;;;;;;;;;4941674;29;20062;-80
2024/02/10 03:02:44;;;;;;;3.40;1.90;;;;;;;;;;4957219;29;20035;-79
2024/02/10 03:05:11;;;;;;;4.15;1.75;;;;;;;;;;4942027;29;20473;-78
2024/02/10 03:07:40;;;;;;;5.88;2.00;;;;;;;;;;4941679;29;20446;-80
2024/02/10 03:10:06;;;;;;;5.65;1.90;;;;;;;;;;4957639;28;20068;-79
2024/02/10 03:12:32;;;;;;;4.32;1.90;;;;;;;;;;4957894;28;20507;-79
2024/02/10 03:15:00;;;;;;;4.43;2.15;;;;;;;;;;4957792;28;20098;-78
2024/02/10 03:17:30;;;;;;;4.17;1.80;;;;;;;;;;4941280;29;20458;-79
2024/02/10 03:19:56;;;;;;;4.93;1.98;;;;;;;;;;4941427;29;20505;-78
2024/02/10 03:22:23;;;;;;;4.68;1.75;;;;;;;;;;4958360;28;20051;-79
2024/02/10 03:24:48;;;;;;;3.85;2.00;;;;;;;;;;4957308;28;20391;-79
2024/02/10 03:27:17;;;;;;;4.13;1.98;;;;;;;;;;4941057;29;20042;-79
2024/02/10 03:29:45;;;;;;;4.40;2.42;;;;;;;;;;4940780;29;20325;-78
2024/02/10 03:32:11;;;;;;;5.00;1.42;;;;;;;;;;4951970;28;20031;-79
2024/02/10 03:34:36;;;;;;;3.58;1.40;;;;;;;;;;4922056;29;20138;-78
2024/02/10 03:37:02;;;;;;;4.72;1.90;;;;;;;;;;4906492;29;20043;-78
2024/02/10 03:39:28;;;;;;;3.17;1.48;;;;;;;;;;4922113;29;20034;-79
2024/02/10 03:41:53;;;;;;;4.63;1.60;;;;;;;;;;4907339;29;20067;-78
2024/02/10 03:44:22;;;;;;;5.53;1.60;;;;;;;;;;4921773;29;20369;-79
2024/02/10 03:46:49;;;;;;;6.65;1.92;;;;;;;;;;4937131;29;20045;-78
2024/02/10 03:49:15;;;;;;;5.22;1.77;;;;;;;;;;4937558;29;20027;-78
2024/02/10 03:51:40;;;;;;;6.53;1.60;;;;;;;;;;4906762;29;20498;-79
2024/02/10 03:54:09;;;;;;;3.22;1.48;;;;;;;;;;4938218;29;20042;-79
2024/02/10 03:56:37;;;;;;;3.70;1.95;;;;;;;;;;4938811;29;20032;-79
2024/02/10 03:59:03;;;;;;;4.50;1.60;;;;;;;;;;4955407;29;20035;-79
2024/02/10 04:01:29;;;;;;;6.22;2.70;;;;;;;;;;4923145;29;20049;-79
2024/02/10 04:04:00;;;;;;;4.43;1.92;;;;;;;;;;4905730;29;20031;-78
2024/02/10 04:06:26;;;;;;;4.82;1.50;;;;;;;;;;4922026;29;20118;-79
2024/02/10 04:08:51;;;;;;;10.40;3.30;;;;;;;;;;4922465;29;20082;-79
2024/02/10 04:11:17;;;;;;;2.58;1.33;;;;;;;;;;4923834;29;20458;-79
2024/02/10 04:13:43;;;;;;;3.08;1.30;;;;;;;;;;4936843;29;20399;-79
2024/02/10 04:16:12;;;;;;;4.25;1.30;;;;;;;;;;4937146;29;20055;-78
2024/02/10 04:18:38;;;;;;;2.60;1.40;;;;;;;;;;4937593;29;20028;-79
2024/02/10 04:21:04;;;;;;;3.35;1.13;;;;;;;;;;4938697;29;20027;-79
2024/02/10 04:23:31;;;;;;;3.10;1.15;;;;;;;;;;4938966;29;20082;-79
2024/02/10 04:25:57;;;;;;;2.75;1.25;;;;;;;;;;4952796;29;20075;-78
2024/02/10 04:28:23;;;;;;;7.07;1.73;;;;;;;;;;4938742;29;20032;-78
2024/02/10 04:30:51;;;;;;;3.42;1.35;;;;;;;;;;4953288;29;20491;-79
2024/02/10 04:33:17;;;;;;;;;;;;;;;;;;4967487;28;20042;-79
2024/02/10 04:35:42;;;;;;;2.40;1.20;;;;;;;;;;4958586;28;20286;-79
2024/02/10 04:38:11;;;;;;;7.00;1.50;;;;;;;;;;4957198;28;20032;-79
2024/02/10 04:40:37;;;;;;;3.20;1.25;;;;;;;;;;4958509;28;20076;-79
2024/02/10 04:43:03;;;;;;;5.35;1.77;;;;;;;;;;4955934;28;20479;-78
2024/02/10 04:45:32;;;;;;;3.67;1.35;;;;;;;;;;4972114;28;20038;-78
2024/02/10 04:47:58;;;;;;;3.20;1.45;;;;;;;;;;4972325;28;20026;-78
2024/02/10 04:50:23;;;;;;;3.35;1.20;;;;;;;;;;4972621;28;20050;-78
2024/02/10 04:52:49;;;;;;;4.40;2.13;;;;;;;;;;4956216;29;20471;-78
2024/02/10 04:55:21;;;;;;;4.93;2.15;;;;;;;;;;4956811;28;20031;-77
2024/02/10 04:57:47;;;;;;;9.73;1.38;;;;;;;;;;4961911;28;20038;-78
2024/02/10 05:00:15;;;;;;;3.60;1.60;;;;;;;;;;4966856;28;20034;-79
2024/02/10 05:02:48;;;;;;;4.55;1.60;;;;;;;;;;4975717;28;20116;-79
2024/02/10 05:05:15;;;;;;;6.30;1.80;;;;;;;;;;4960034;29;20745;-79
2024/02/10 05:07:42;;;;;;;5.30;1.65;;;;;;;;;;4943037;29;20043;-79
2024/02/10 05:10:09;;;;;;;3.22;1.48;;;;;;;;;;4944825;29;20039;-79
2024/02/10 05:12:34;;;;;;;3.30;1.52;;;;;;;;;;4960034;28;20050;-78
2024/02/10 05:15:00;;;;;;;5.38;1.50;;;;;;;;;;4958195;28;20475;-79
2024/02/10 05:17:26;;;;;;;2.60;1.55;;;;;;;;;;4955900;28;20035;-78
2024/02/10 05:19:51;;;;;;;4.10;1.70;;;;;;;;;;4944562;29;20023;-78
2024/02/10 05:22:18;;;;;;;3.63;1.52;;;;;;;;;;4961803;28;20158;-79
2024/02/10 05:24:46;;;;;;;5.45;1.80;;;;;;;;;;4961670;28;20058;-79
2024/02/10 05:27:13;;;;;;;4.32;1.73;;;;;;;;;;4962761;29;20035;-77
2024/02/10 05:29:38;;;;;;;4.28;1.90;;;;;;;;;;4977954;28;20124;-80
2024/02/10 05:32:05;;;;;;;4.57;1.73;;;;;;;;;;4946050;29;20043;-80
2024/02/10 05:34:31;;;;;;;6.60;1.80;;;;;;;;;;4978448;28;20049;-79
2024/02/10 05:36:59;;;;;;;5.82;1.75;;;;;;;;;;4944707;29;20079;-77
2024/02/10 05:39:25;;;;;;;4.78;2.03;;;;;;;;;;4942822;29;20030;-78
2024/02/10 05:41:52;;;;;;;7.50;2.33;;;;;;;;;;4942461;29;20043;-78
2024/02/10 05:44:18;;;;;;;5.78;1.65;;;;;;;;;;4938540;29;20597;-80
2024/02/10 05:46:44;;;;;;;3.75;1.85;;;;;;;;;;4953922;28;20102;-79
2024/02/10 05:49:10;;;;;;;4.93;1.70;;;;;;;;;;4954006;29;20031;-80
2024/02/10 05:51:38;;;;;;;7.95;1.92;;;;;;;;;;4954968;29;20039;-80
2024/02/10 05:54:05;;;;;;;3.88;1.75;;;;;;;;;;4954259;28;20059;-79
2024/02/10 05:56:31;;;;;;;2.78;1.60;;;;;;;;;;4954454;28;20082;-78
2024/02/10 05:58:56;;;;;;;4.25;1.88;;;;;;;;;;4938547;29;20078;-79
2024/02/10 06:01:22;;;;;;;6.28;1.80;;;;;;;;;;4955706;28;20050;-79
2024/02/10 06:03:54;;;;;;;4.93;2.05;;;;;;;;;;4955281;28;20134;-80
2024/02/10 06:06:20;;;;;;;5.47;1.92;;;;;;;;;;4970689;28;20062;-79
2024/02/10 06:08:47;;;;;;;6.45;2.10;;;;;;;;;;4954471;29;20043;-79
2024/02/10 06:11:17;;;;;;;6.32;1.77;;;;;;;;;;4970643;28;20579;-78
2024/02/10 06:13:45;;;;;;;5.40;2.13;;;;;;;;;;4954190;28;20097;-78
2024/02/10 06:16:10;;;;;;;8.23;1.95;;;;;;;;;;4939309;29;20039;-78
2024/02/10 06:18:36;;;;;;;5.35;2.20;;;;;;;;;;4954512;28;20171;-78
2024/02/10 06:21:02;;;;;;;5.60;2.08;;;;;;;;;;4938879;29;20031;-79
2024/02/10 06:23:30;;;;;;;6.68;2.28;;;;;;;;;;4955799;28;20035;-78
2024/02/10 06:25:56;;;;;;;5.13;2.33;;;;;;;;;;4957483;28;20119;-79
2024/02/10 06:28:22;;;;;;;4.80;2.70;;;;;;;;;;4959653;28;20203;-79
2024/02/10 06:30:51;;;;;;;3.80;1.88;;;;;;;;;;4959935;29;20490;-78
2024/02/10 06:33:16;;;;;;;;;;;;;;;;;;4959966;28;20123;-79
2024/02/10 06:35:44;;;;;;;5.28;2.08;;;;;;;;;;4974814;28;19939;-79
2024/02/10 06:38:10;;;;;;;5.85;2.63;;;;;;;;;;4958533;29;20032;-78
2024/02/10 06:40:36;;;;;;;6.25;1.73;;;;;;;;;;4974617;28;20031;-79
2024/02/10 06:43:02;;;;;;;5.15;2.08;;;;;;;;;;4959251;28;20435;-80
2024/02/10 06:45:29;;;;;;;5.50;2.08;;;;;;;;;;4958785;28;20031;-79
2024/02/10 06:47:56;;;;;;;4.55;2.45;;;;;;;;;;4974741;28;20027;-78
2024/02/10 06:50:26;;;;;;;4.57;1.65;;;;;;;;;;4942068;29;20062;-78
2024/02/10 06:52:52;;;;;;;3.67;2.15;;;;;;;;;;4942432;29;20034;-78
2024/02/10 06:55:19;;;;;;;4.15;2.08;;;;;;;;;;4958365;28;20398;-79
2024/02/10 06:57:47;;;;;;;8.05;2.10;;;;;;;;;;4974140;28;20035;-78
2024/02/10 07:00:14;;;;;;;6.15;2.05;;;;;;;;;;4958496;29;20039;-79
2024/02/10 07:02:44;;;;;;;3.95;2.10;;;;;;;;;;4943759;29;20031;-79
2024/02/10 07:05:11;;;;;;;4.38;2.05;;;;;;;;;;4942566;29;20097;-79
2024/02/10 07:07:39;;;;;;;7.07;2.30;;;;;;;;;;4958762;28;20031;-79
2024/02/10 07:10:23;;;;;;;5.00;1.92;;;;;;;;;;4942731;29;20455;-79
2024/02/10 07:12:50;;;;;;;3.88;1.98;;;;;;;;;;4944153;29;20031;-79
2024/02/10 07:15:18;;;;;;;4.75;2.10;;;;;;;;;;4960211;28;20082;-78
2024/02/10 07:17:47;;;;;;;4.22;1.75;;;;;;;;;;4961347;28;20053;-78
2024/02/10 07:20:23;;;;;;;6.50;2.03;;;;;;;;;;4961892;28;20061;-78
2024/02/10 07:22:57;;;;;;;5.45;2.42;;;;;;;;;;4944520;29;20037;-78
2024/02/10 07:25:24;;;;;;;5.28;1.95;;;;;;;;;;4928447;29;20059;-78
2024/02/10 07:27:51;;;;;;;7.55;2.47;;;;;;;;;;4959172;29;20027;-78
2024/02/10 07:30:20;;;;;;;4.88;2.00;;;;;;;;;;4926967;29;20058;-78
2024/02/10 07:32:47;;;;;;;4.93;1.88;;;;;;;;;;4961208;28;20158;-78
2024/02/10 07:35:13;;;;;;;3.90;1.65;;;;;;;;;;4958243;28;20031;-79
2024/02/10 07:37:39;;;;;;;3.90;1.90;;;;;;;;;;4958780;28;20144;-78
2024/02/10 07:40:06;;;;;;;4.00;1.70;;;;;;;;;;4943388;29;20558;-79
2024/02/10 07:42:32;;;;;;;5.10;1.70;;;;;;;;;;4941973;29;20034;-79
2024/02/10 07:44:59;;;;;;;3.75;1.80;;;;;;;;;;4958116;28;20031;-79
2024/02/10 07:47:25;;;;;;;4.78;1.45;;;;;;;;;;4975046;28;20058;-79
2024/02/10 07:49:54;;;;;;;3.67;2.08;;;;;;;;;;4958573;29;20035;-79
2024/02/10 07:52:20;;;;;;;5.55;1.85;;;;;;;;;;4959257;28;20098;-79
2024/02/10 07:54:46;;;;;;;5.25;1.95;;;;;;;;;;4958529;28;20031;-79
2024/02/10 07:57:19;;;;;;;4.60;2.30;;;;;;;;;;4957779;29;20035;-79
2024/02/10 07:59:51;;;;;;;6.43;1.92;;;;;;;;;;4976316;28;20020;-79
2024/02/10 08:02:21;;;;;;;5.28;2.05;;;;;;;;;;4975784;28;20156;-79
2024/02/10 08:04:49;;;;;;;4.70;2.00;;;;;;;;;;4945556;29;20034;-78
2024/02/10 08:07:16;;;;;;;3.95;1.80;;;;;;;;;;4943686;29;20031;-79
2024/02/10 08:09:41;;;;;;;3.85;1.67;;;;;;;;;;4959929;29;20039;-79
2024/02/10 08:12:08;;;;;;;4.53;1.70;;;;;;;;;;4944842;29;20038;-79
2024/02/10 08:14:36;;;;;;;4.10;2.13;;;;;;;;;;4947722;29;20065;-79
2024/02/10 08:17:04;;;;;;;4.35;2.20;;;;;;;;;;4945049;29;20027;-78
2024/02/10 08:19:30;;;;;;;3.65;1.67;;;;;;;;;;4961242;29;20191;-79
2024/02/10 08:21:57;;;;;;;9.23;1.90;;;;;;;;;;4961720;28;20479;-78
2024/02/10 08:24:22;;;;;;;7.68;2.10;;;;;;;;;;4965239;28;20027;-79
2024/02/10 08:26:49;;;;;;;3.90;1.70;;;;;;;;;;4966056;29;20103;-78
2024/02/10 08:29:15;;;;;;;3.33;1.83;;;;;;;;;;4965537;28;20103;-79
2024/02/10 08:31:40;;;;;;;3.70;1.80;;;;;;;;;;4950280;29;20027;-79
2024/02/10 08:34:08;;;;;;;9.50;2.67;;;;;;;;;;4933742;29;20094;-78
2024/02/10 08:36:35;;;;;;;6.47;1.80;;;;;;;;;;4943176;29;20039;-79
2024/02/10 08:39:03;;;;;;;5.03;2.33;;;;;;;;;;4959974;29;20107;-79
2024/02/10 08:41:29;;;;;;;8.23;2.33;;;;;;;;;;4912344;29;20499;-78
2024/02/10 08:43:55;;;;;;;3.97;1.77;;;;;;;;;;4942524;29;20039;-78
2024/02/10 08:46:23;;;;;;;3.67;1.70;;;;;;;;;;4926148;29;20094;-78
2024/02/10 08:48:50;;;;;;;5.07;1.40;;;;;;;;;;4925685;29;20028;-78
2024/02/10 08:51:15;;;;;;;6.53;1.90;;;;;;;;;;4940906;29;20039;-78
2024/02/10 08:53:41;;;;;;;3.40;1.77;;;;;;;;;;4941505;29;20108;-78
2024/02/10 08:56:10;;;;;;;6.47;1.55;;;;;;;;;;4910630;29;20043;-80
2024/02/10 08:58:40;;;;;;;5.05;1.60;;;;;;;;;;4924799;29;20134;-79
2024/02/10 09:01:15;;;;;;;5.38;1.92;;;;;;;;;;4909356;29;20075;-78
2024/02/10 09:03:49;;;;;;;5.20;1.38;;;;;;;;;;4910256;29;20058;-78
2024/02/10 09:06:15;;;;;;;4.10;1.80;;;;;;;;;;4941351;29;20043;-77
2024/02/10 09:08:43;;;;;;;5.75;2.58;;;;;;;;;;4927066;29;20063;-79
2024/02/10 09:11:08;;;;;;;3.67;1.75;;;;;;;;;;4910889;29;20039;-78
2024/02/10 09:13:34;;;;;;;7.40;2.58;;;;;;;;;;4925518;29;20028;-78
2024/02/10 09:16:00;;;;;;;5.40;1.90;;;;;;;;;;4940482;29;20111;-78
2024/02/10 09:18:25;;;;;;;5.25;1.85;;;;;;;;;;4939790;29;20182;-78
2024/02/10 09:20:52;;;;;;;6.38;2.83;;;;;;;;;;4941068;29;20035;-78
2024/02/10 09:23:17;;;;;;;5.15;1.95;;;;;;;;;;4941392;29;20103;-78
2024/02/10 09:25:43;;;;;;;5.80;2.13;;;;;;;;;;4940732;29;20391;-78
2024/02/10 09:28:08;;;;;;;5.43;2.63;;;;;;;;;;4923145;29;20444;-78
2024/02/10 09:30:35;;;;;;;7.22;2.47;;;;;;;;;;4924189;29;20387;-78
2024/02/10 09:33:02;;;;;;;5.35;2.30;;;;;;;;;;4910477;29;20031;-77
2024/02/10 09:35:33;;;;;;;5.00;1.90;;;;;;;;;;4939916;29;20023;-78
2024/02/10 09:37:58;;;;;;;5.90;2.40;;;;;;;;;;4940177;29;20035;-77
2024/02/10 09:40:24;;;;;;;9.93;2.28;;;;;;;;;;4956208;29;20040;-78
2024/02/10 09:42:53;;;;;;;6.45;1.63;;;;;;;;;;4938662;29;20171;-78
2024/02/10 09:45:22;;;;;;;3.05;1.70;;;;;;;;;;4940924;29;20439;-79
2024/02/10 09:47:49;;;;;;;4.90;1.77;;;;;;;;;;4940564;29;20039;-79
2024/02/10 09:50:16;;;;;;;4.43;2.25;;;;;;;;;;4908724;29;20035;-78
2024/02/10 09:52:46;;;;;;;5.28;1.80;;;;;;;;;;4908162;29;20158;-80
2024/02/10 09:55:15;;;;;;;5.22;1.90;;;;;;;;;;4922948;29;20040;-77
2024/02/10 09:57:46;;;;;;;3.95;1.70;;;;;;;;;;4908682;29;20024;-78
2024/02/10 10:00:15;;;;;;;6.15;2.40;;;;;;;;;;4910112;29;20032;-78
2024/02/10 10:02:46;;;;;;;4.22;1.75;;;;;;;;;;4926558;29;20036;-78
2024/02/10 10:05:11;;;;;;;9.32;2.20;;;;;;;;;;4941284;29;20188;-77
2024/02/10 10:07:37;;;;;;;4.50;1.70;;;;;;;;;;4940355;29;20114;-77
2024/02/10 10:10:03;;;;;;;4.00;1.65;;;;;;;;;;4940263;29;20099;-78
2024/02/10 10:12:28;;;;;;;7.43;1.70;;;;;;;;;;4925164;29;20032;-79
2024/02/10 10:14:54;;;;;;;5.18;1.77;;;;;;;;;;4941739;29;20112;-79
2024/02/10 10:17:20;;;;;;;3.45;1.40;;;;;;;;;;4910214;29;20540;-79
2024/02/10 10:19:46;;;;;;;6.28;1.67;;;;;;;;;;4923997;29;20032;-78
2024/02/10 10:22:15;;;;;;;10.60;1.58;;;;;;;;;;4941857;29;20051;-78
2024/02/10 10:24:41;;;;;;;11.43;4.97;;;;;;;;;;4908588;29;20043;-79
2024/02/10 10:27:07;;;;;;;3.67;1.55;;;;;;;;;;4925315;29;20111;-78
2024/02/10 10:29:34;;;;;;;4.32;1.38;;;;;;;;;;4924551;29;20059;-79
2024/02/10 10:32:02;;;;;;;6.18;1.80;;;;;;;;;;4940837;29;20047;-78
2024/02/10 10:34:29;;;;;;;5.97;1.70;;;;;;;;;;4923844;29;20098;-80
2024/02/10 10:37:00;;;;;;;3.78;1.90;;;;;;;;;;4924760;29;20110;-79
2024/02/10 10:39:36;;;;;;;4.53;1.85;;;;;;;;;;4928167;29;20475;-78
2024/02/10 10:42:03;;;;;;;3.50;1.55;;;;;;;;;;4908424;29;20110;-80
2024/02/10 10:44:29;;;;;;;3.85;1.35;;;;;;;;;;4941511;29;20040;-78
2024/02/10 10:46:58;;;;;;;3.22;1.33;;;;;;;;;;4925205;29;20042;-77
2024/02/10 10:49:24;;;;;;;4.63;1.73;;;;;;;;;;4942915;29;20039;-78
2024/02/10 10:52:03;;;;;;;5.05;1.60;;;;;;;;;;4941579;29;20040;-78
2024/02/10 10:54:33;;;;;;;3.13;1.30;;;;;;;;;;4927449;29;20043;-78
2024/02/10 10:57:13;;;;;;;3.22;1.50;;;;;;;;;;4911642;29;20043;-79
2024/02/10 10:59:40;;;;;;;3.58;1.50;;;;;;;;;;4944943;29;20080;-78
2024/02/10 11:02:09;;;;;;;3.47;1.20;;;;;;;;;;4933862;29;20063;-79
2024/02/10 11:04:34;;;;;;;1.30;0.90;;;;;;;;;;4947397;29;20036;-78
2024/02/10 11:07:11;;;;;;;2.97;1.20;;;;;;;;;;4914629;29;20074;-78
2024/02/10 11:09:51;;;;;;;5.53;1.50;;;;;;;;;;4919201;29;20032;-79
2024/02/10 11:12:18;;;;;;;5.40;1.02;;;;;;;;;;4938898;29;20058;-79
2024/02/10 11:14:48;;;;;;;2.50;1.00;;;;;;;;;;4953395;29;20071;-78
2024/02/10 11:17:14;;;;;;;3.65;0.90;;;;;;;;;;4958551;29;20038;-78
2024/02/10 11:19:42;;;;;;;3.33;0.88;;;;;;;;;;4971903;28;20031;-79
2024/02/10 11:22:09;;;;;;;2.40;1.05;;;;;;;;;;4970676;29;20044;-80
2024/02/10 11:24:44;;;;;;;2.67;0.90;;;;;;;;;;4954072;29;20038;-79
2024/02/10 11:27:12;;;;;;;2.50;0.95;;;;;;;;;;4951084;29;20039;-81
2024/02/10 11:29:39;;;;;;;;;;;;;;;;;;4922182;29;20047;-79
2024/02/10 11:32:05;;;;;;;2.67;0.93;;;;;;;;;;4972286;28;19907;-79
2024/02/10 11:34:31;;;;;;;2.92;0.90;;;;;;;;;;4988032;28;20059;-79
2024/02/10 11:36:57;;;;;;;2.13;0.77;;;;;;;;;;4970942;29;20070;-80
2024/02/10 11:39:24;;;;;;;3.13;0.82;;;;;;;;;;4971772;28;20035;-79
2024/02/10 11:42:00;;;;;;;1.75;0.70;;;;;;;;;;4986741;28;20470;-79
2024/02/10 11:44:28;;;;;;;1.75;0.73;;;;;;;;;;4951259;29;20054;-79
2024/02/10 11:46:59;;;;;;;3.00;1.27;;;;;;;;;;4954737;29;20128;-80
2024/02/10 11:49:26;;;;;;;2.75;0.80;;;;;;;;;;4971194;28;20031;-80
2024/02/10 11:51:56;;;;;;;1.83;0.80;;;;;;;;;;4970568;28;20110;-80
2024/02/10 11:54:23;;;;;;;3.40;1.00;;;;;;;;;;4968888;28;20051;-80
2024/02/10 11:56:50;;;;;;;3.83;0.90;;;;;;;;;;4964969;29;20046;-79
2024/02/10 11:59:19;;;;;;;3.33;1.23;;;;;;;;;;4967244;28;20071;-80
2024/02/10 12:01:45;;;;;;;4.68;1.23;;;;;;;;;;4967787;28;20031;-79
2024/02/10 12:04:17;;;;;;;4.10;1.20;;;;;;;;;;4968604;28;20502;-79
2024/02/10 12:06:44;;;;;;;3.97;1.48;;;;;;;;;;4954091;29;20035;-79
2024/02/10 12:09:14;;;;;;;3.70;1.35;;;;;;;;;;4954921;28;20046;-80
2024/02/10 12:11:40;;;;;;;2.60;1.00;;;;;;;;;;4985558;28;20051;-80
2024/02/10 12:14:13;;;;;;;6.25;1.10;;;;;;;;;;4953112;28;20438;-80
2024/02/10 12:16:45;;;;;;;3.25;1.00;;;;;;;;;;4951932;29;20066;-79
2024/02/10 12:19:14;;;;;;;4.90;1.35;;;;;;;;;;4952470;29;20059;-80
2024/02/10 12:21:41;;;;;;;3.70;0.70;;;;;;;;;;4967296;28;20027;-80
2024/02/10 12:24:11;;;;;;;7.50;1.45;;;;;;;;;;4968334;28;20035;-80
2024/02/10 12:26:40;;;;;;;2.55;1.00;;;;;;;;;;4968932;28;20043;-80
2024/02/10 12:29:09;;;;;;;3.13;0.93;;;;;;;;;;4964733;28;20513;-79
2024/02/10 12:31:35;;;;;;;2.00;0.60;;;;;;;;;;4967704;28;20050;-80
2024/02/10 12:34:04;;;;;;;3.97;0.95;;;;;;;;;;4963153;28;20043;-80
2024/02/10 12:36:31;;;;;;;3.67;1.10;;;;;;;;;;4947288;29;20479;-80
2024/02/10 12:38:57;;;;;;;2.33;0.88;;;;;;;;;;4912237;29;20533;-79
2024/02/10 12:41:23;;;;;;;3.90;0.85;;;;;;;;;;4934724;29;20040;-80
2024/02/10 12:43:50;;;;;;;3.50;1.10;;;;;;;;;;4934956;29;20028;-79
2024/02/10 12:46:16;;;;;;;2.55;0.85;;;;;;;;;;4949208;29;20039;-79
2024/02/10 12:48:42;;;;;;;2.20;1.13;;;;;;;;;;4932681;29;20064;-79
2024/02/10 12:51:08;;;;;;;3.70;0.80;;;;;;;;;;4919753;29;20356;-79
2024/02/10 12:53:35;;;;;;;4.72;1.00;;;;;;;;;;4933777;29;20107;-80
2024/02/10 12:56:04;;;;;;;3.05;1.33;;;;;;;;;;4920655;29;20122;-79
2024/02/10 12:58:33;;;;;;;4.68;1.15;;;;;;;;;;4936616;29;20032;-79
2024/02/10 13:00:59;;;;;;;3.28;0.90;;;;;;;;;;4948670;29;20107;-79
2024/02/10 13:03:29;;;;;;;3.90;1.10;;;;;;;;;;4951158;29;20058;-80
2024/02/10 13:05:56;;;;;;;4.00;1.10;;;;;;;;;;4936304;29;20031;-80
2024/02/10 13:08:25;;;;;;;2.63;1.00;;;;;;;;;;4951261;29;20024;-78
2024/02/10 13:10:51;;;;;;;3.20;0.90;;;;;;;;;;4948873;29;20032;-80
2024/02/10 13:13:17;;;;;;;2.17;1.00;;;;;;;;;;4948774;29;20036;-80
2024/02/10 13:15:46;;;;;;;2.58;1.17;;;;;;;;;;4950095;29;20040;-79
2024/02/10 13:18:16;;;;;;;4.50;1.38;;;;;;;;;;4949912;29;20037;-79
2024/02/10 13:20:42;;;;;;;2.08;0.63;;;;;;;;;;4948884;29;20046;-79
2024/02/10 13:23:10;;;;;;;1.65;0.65;;;;;;;;;;4933137;29;20055;-78
2024/02/10 13:25:36;;;;;;;3.10;0.98;;;;;;;;;;4916419;29;20042;-79
2024/02/10 13:28:04;;;;;;;3.70;0.70;;;;;;;;;;4948874;29;20055;-79
2024/02/10 13:30:30;;;;;;;1.67;0.40;;;;;;;;;;4919976;29;20040;-79
2024/02/10 13:32:56;;;;;;;1.30;0.52;;;;;;;;;;4918913;29;20278;-79
2024/02/10 13:35:22;;;;;;;1.23;0.60;;;;;;;;;;4930444;29;20091;-80
2024/02/10 14:12:45;;;;;;;4.90;1.50;;;;;;;;;;4964127;29;20067;-79
2024/02/10 14:15:17;;;;;;;3.72;1.30;;;;;;;;;;4925402;29;20103;-79
2024/02/10 14:17:43;;;;;;;3.72;1.67;;;;;;;;;;4948739;29;20039;-80
2024/02/10 14:20:18;;;;;;;7.95;1.70;;;;;;;;;;4947204;29;20090;-79
2024/02/10 14:22:53;;;;;;;4.30;1.42;;;;;;;;;;4933090;29;20083;-78
2024/02/10 14:25:27;;;;;;;4.75;1.48;;;;;;;;;;4913854;29;20143;-79
2024/02/10 14:27:58;;;;;;;3.30;1.70;;;;;;;;;;4948930;29;20036;-79
2024/02/10 14:30:37;;;;;;;6.55;1.60;;;;;;;;;;4946789;29;20039;-78
2024/02/10 14:33:03;;;;;;;;;;;;;;;;;;4961840;29;20028;-80
2024/02/10 14:35:44;;;;;;;6.28;1.88;;;;;;;;;;4965147;28;19917;-78
2024/02/10 14:41:02;;;;;;;5.55;2.10;;;;;;;;;;4964347;29;20023;-79
2024/02/10 14:43:29;;;;;;;6.35;1.83;;;;;;;;;;4946297;29;20067;-79
2024/02/10 14:45:59;;;;;;;3.60;1.58;;;;;;;;;;4929934;29;20030;-79
2024/02/10 14:48:30;;;;;;;4.93;1.67;;;;;;;;;;4917709;29;20046;-79
2024/02/10 14:51:02;;;;;;;3.33;1.65;;;;;;;;;;4949079;29;20036;-78
2024/02/10 14:53:31;;;;;;;5.47;1.75;;;;;;;;;;4946941;29;20027;-78
2024/02/10 14:55:59;;;;;;;7.00;1.83;;;;;;;;;;4932252;29;20035;-79
2024/02/10 14:58:26;;;;;;;5.50;1.83;;;;;;;;;;4950143;29;20066;-79
2024/02/10 15:01:03;;;;;;;4.00;1.60;;;;;;;;;;4933582;29;20126;-79
2024/02/10 15:03:38;;;;;;;7.13;2.15;;;;;;;;;;4965302;28;20032;-78
2024/02/10 15:06:14;;;;;;;5.43;2.17;;;;;;;;;;4931295;29;20038;-79
2024/02/10 15:08:40;;;;;;;6.55;2.72;;;;;;;;;;4948041;29;20115;-79
2024/02/10 15:11:07;;;;;;;6.03;2.75;;;;;;;;;;4963516;29;20038;-79
2024/02/10 15:13:35;;;;;;;5.63;2.38;;;;;;;;;;4916759;29;20040;-79
2024/02/10 15:16:01;;;;;;;;;;;;;;;;;;4946845;29;20036;-78
2024/02/10 15:18:29;;;;;;;8.18;3.53;;;;;;;;;;4929801;29;19911;-79
2024/02/10 15:20:55;;;;;;;8.25;4.10;;;;;;;;;;4915445;29;20063;-78
2024/02/10 15:23:24;;;;;;;7.82;4.55;;;;;;;;;;4913927;29;20043;-79
2024/02/10 15:25:50;;;;;;;7.47;4.32;;;;;;;;;;4945321;29;20047;-79